AElvsbyn, Sweden

11:08 PM CET on December 11, 2019 (GMT +0100)
Sjulsmark | | Change Station

Elev 125 ft 65.52 °N, 21.48 °E | Updated 5 seconds ago

Partly Cloudy
Partly Cloudy
31.3 °F
Feels Like 31 °F
N
1.1
Wind Variable Wind from ESE
Gusts 1.1 mph

Today
High -- | Low -- °F
--% Chance of Precip.
Yesterday
High -- | Low -- °F
Precip. -- in
Pressure 29.39 in
Visibility 6.2 miles
Clouds Scattered Clouds 700 ft
Windchill 31 °F
Dew Point 31 °F
Humidity 99%
Rainfall 0.04 in
Snow Depth Not available.
9:45 AM 1:12 PM
Full, 100% visible
METAR ESPA 112150Z 20010KT 9999 SCT007 00/M00 Q0995
Pressure 29.39 in
Visibility 6.2 miles
Clouds Scattered Clouds 700 ft
Windchill 31 °F
Dew Point 31 °F
Humidity 99%
Rainfall 0.04 in
Snow Depth Not available.
9:45 AM 1:12 PM
Full, 100% visible
METAR ESPA 112150Z 20010KT 9999 SCT007 00/M00 Q0995

Get Severe Weather Alerts

Thanks for signing up!

Be on the lookout for a verification email in your inbox.

You'll start receiving the daily forecast at 6 AM.

×

10-Day Weather Forecast

×

Almanac

Astronomy

Dec. 11, 2019 Rise Set
Actual Time
Civil Twilight
Nautical Twilight
Astronomical Twilight
Moon
Length of Visible Light
Length of Day
Tomorrow will be .
, % of the Moon is Illuminated

Today's Extremes

Country Highs Country Lows

Community

WunderPhotos

Category 6

Welcome to Category 6. This is the collective home for Weather Underground's featured writeups by Dr. Jeff Masters (right), Bob Henson (left), Chris Burt, and other regular contributors.

Nearby

Air Quality

  Air Quality AQ Index Pollutant
Not available.

Snow Depth

Station Depth Elevation

Earthquake Activity

City Distance Mag. Time & Date
Minimum magnitude displayed is 2.5.

Coastal Water Temperatures

Place Temperature

Stations

Nearby Weather Stations

Station Location Temp. Windchill Dew Point Humidity Wind Precip. Elev Updated Type